KCNY

Details ICAO KCNY (CNY)
Name CANYONLANDS FLD
Region United States
Timezone America/Denver (UTC-7.0)
Plans Departing 16
Arriving 21
Stats Elevation 4,555 ft / 1,388 m (AMSL)
Location 38.754957° -109.754845°
Runways 1
Magnetic Variation 10.295° E
Sunrise 2017-12-13 14:30:15 UTC / 2017-12-13 07:30:15 Local
Sunset 2017-12-13 23:59:18 UTC / 2017-12-13 16:59:18 Local
Advertisement - Login to hide

Runways

ID Width Length Bearing (true) Bearing (mag) Surface Threshold Offset Overrun Length
03 75 ft / 23 m 7,099 ft / 2,164 m 39.77° 29.47° Asphalt 0 ft / 0 m 0 ft / 0 m
21 75 ft / 23 m 7,099 ft / 2,164 m 219.78° 209.48° Asphalt 0 ft / 0 m 0 ft / 0 m

Map

Weather


0- 5 10 15 20 25 30 35+ Temperature / ° C

Clouds and Precipitation
Forecast for 2017-12-13 18:00 UTC. Updated 2 hours ago

Ground ~20,000 ft ~40,000 ft Winds

METAR

KCNY 131753Z AUTO 32005KT 10SM CLR 01/M15 A3024 RMK AO2 SLP263 T00111150 10011 21117 58004

TAF

KCNY 131742Z 1318/1418 32004KT P6SM SKC FM140300 24004KT P6SM BKN100 BKN150 FM140400 VRB03KT P6SM FEW090 SCT150

Frequencies

Recorded 118.52 MHz ASOS
Unicom 122.80 MHz CTAF/UNICOM
Warning: Do not use this data for real-world aviation or navigation. No guarantee of current accuracy is given.